KGAIKBLM

Guest
Details From KGAI - MONTGOMERY CO AIRPARK
To KBLM - MONMOUTH EXECUTIVE
Flight Number -
Tags generated
Created
Modified
Stats Distance 153 nm / 284 km
Max Altitude 17,900 ft / 5,456 m
Waypoints 3
Social Downloads 1
Likes 0
Share VATSIM

Download

Looking for another format? Having issues loading an existing format? Contact us
Advertisement - Login to hide

Notes

Basic altitude profile: - Ascent Rate: 2500ft/min - Ascent Speed: 250kts - Cruise Altitude: 35000ft - Cruise Speed: 420kts - Descent Rate: 1500ft/min - Descent Speed: 250kts Options: - Use NATs: yes - Use PACOTS: yes - Use low airways: yes - Use high airways: no

Route

KGAI ELUDE KBLM

ID Type Via Altitude Latitude Longitude Leg Dist Tot Dist Heading (true) Name
O KGAI APT - 0 ft / 0 m 39.16829˚ -77.16597˚ - 0 nm - MONTGOMERY CO AIRPARK
ELUDE FIX - 17,900 ft / 5,456 m 39.65313˚ -75.80234˚ 69 nm 69 nm 65° / 66° -
O KBLM APT - 0 ft / 0 m 40.18656˚ -74.12403˚ 83 nm 153 nm 67° / 68° MONMOUTH EXECUTIVE

Altitude Profile

Advertisement - Login to hide

KGAI

Details ICAO KGAI (GAI)
Name MONTGOMERY CO AIRPARK
Region United States
Timezone America/New_York (UTC-5.0)
Stats Elevation 539 ft / 164 m (AMSL)
Location 39.168286° -77.165966°
Runways 1
Magnetic Variation 10.813° W

METAR

KGAI 112256Z AUTO 12003KT 10SM CLR 04/M04 A2994 RMK AO2 SLP171 T00391044

Decode

TAF

Not found

Departure Runways

ID Width Length Bearing (true) Bearing (mag) Surface Threshold Offset Overrun Length
14 75 ft / 23 m 4,233 ft / 1,290 m 127.52° 138.33° Asphalt 0 ft / 0 m 0 ft / 0 m
32 75 ft / 23 m 4,233 ft / 1,290 m 307.53° 318.34° Asphalt 0 ft / 0 m 0 ft / 0 m

KBLM

Details ICAO KBLM
Name MONMOUTH EXECUTIVE
Region United States
Timezone America/New_York (UTC-5.0)
Stats Elevation 159 ft / 48 m (AMSL)
Location 40.186559° -74.124027°
Runways 2
Magnetic Variation 12.715° W

METAR

KBLM 112256Z AUTO 22004KT 10SM CLR 03/M06 A3004 RMK AO2 SLP178 T00281061

Decode

TAF

Not found

Destination Runways

ID Width Length Bearing (true) Bearing (mag) Surface Threshold Offset Overrun Length
03 49 ft / 15 m 3,711 ft / 1,131 m 21.64° 34.36° Asphalt 0 ft / 0 m 0 ft / 0 m
14 79 ft / 24 m 7,298 ft / 2,224 m 132.59° 145.31° Asphalt 0 ft / 0 m 0 ft / 0 m
21 49 ft / 15 m 3,711 ft / 1,131 m 201.64° 214.36° Asphalt 0 ft / 0 m 0 ft / 0 m
32 79 ft / 24 m 7,298 ft / 2,224 m 312.60° 325.32° Asphalt 0 ft / 0 m 0 ft / 0 m

Approach Navaids

Runway Type Ident Frequency Range Bearing (true) Bearing (mag) Slope Elevation
14 Localiser IBLM 109.75 MHz 18 nm / 33 km 132.59° 145.31° - 159 ft / 48 m (AMSL)
14 DME IBLM 109.75 MHz 18 nm / 33 km - - - 159 ft / 48 m (AMSL)

Popular Alternatives